sensor_id;sensor_type;location;lat;lon;timestamp;temperature;humidity
41628;DHT22;27321;50.816;6.054;2024-02-14T00:01:46;10.00;72.70
41628;DHT22;27321;50.816;6.054;2024-02-14T00:04:47;10.10;73.10
41628;DHT22;27321;50.816;6.054;2024-02-14T00:07:48;10.00;73.10
41628;DHT22;27321;50.816;6.054;2024-02-14T00:10:49;10.10;73.20
41628;DHT22;27321;50.816;6.054;2024-02-14T00:13:50;10.20;73.10
41628;DHT22;27321;50.816;6.054;2024-02-14T00:16:51;10.10;73.20
41628;DHT22;27321;50.816;6.054;2024-02-14T00:19:52;10.10;73.30
41628;DHT22;27321;50.816;6.054;2024-02-14T00:22:53;10.10;73.60
41628;DHT22;27321;50.816;6.054;2024-02-14T00:25:54;10.10;73.80
41628;DHT22;27321;50.816;6.054;2024-02-14T00:28:55;10.10;73.90
41628;DHT22;27321;50.816;6.054;2024-02-14T00:31:56;10.10;74.00
41628;DHT22;27321;50.816;6.054;2024-02-14T00:34:58;10.10;74.50
41628;DHT22;27321;50.816;6.054;2024-02-14T00:37:59;10.10;74.90
41628;DHT22;27321;50.816;6.054;2024-02-14T00:41:00;10.10;75.70
41628;DHT22;27321;50.816;6.054;2024-02-14T00:44:02;10.00;75.50
41628;DHT22;27321;50.816;6.054;2024-02-14T00:47:07;10.00;75.90
41628;DHT22;27321;50.816;6.054;2024-02-14T00:50:08;10.00;75.60
41628;DHT22;27321;50.816;6.054;2024-02-14T00:53:09;10.00;75.60
41628;DHT22;27321;50.816;6.054;2024-02-14T00:56:10;10.10;75.90
41628;DHT22;27321;50.816;6.054;2024-02-14T00:59:11;10.10;75.60
41628;DHT22;27321;50.816;6.054;2024-02-14T01:02:12;10.20;75.30
41628;DHT22;27321;50.816;6.054;2024-02-14T01:05:13;10.20;75.30
41628;DHT22;27321;50.816;6.054;2024-02-14T01:08:14;10.10;75.40
41628;DHT22;27321;50.816;6.054;2024-02-14T01:11:15;10.10;75.50
41628;DHT22;27321;50.816;6.054;2024-02-14T01:14:16;10.10;75.70
41628;DHT22;27321;50.816;6.054;2024-02-14T01:17:17;10.20;75.40
41628;DHT22;27321;50.816;6.054;2024-02-14T01:20:18;10.20;75.50
41628;DHT22;27321;50.816;6.054;2024-02-14T01:23:19;10.10;75.80
41628;DHT22;27321;50.816;6.054;2024-02-14T01:26:22;10.10;75.80
41628;DHT22;27321;50.816;6.054;2024-02-14T01:29:23;10.10;75.70
41628;DHT22;27321;50.816;6.054;2024-02-14T01:32:24;10.20;75.80
41628;DHT22;27321;50.816;6.054;2024-02-14T01:35:25;10.10;75.70
41628;DHT22;27321;50.816;6.054;2024-02-14T01:38:26;10.20;75.90
41628;DHT22;27321;50.816;6.054;2024-02-14T01:41:27;10.20;76.10
41628;DHT22;27321;50.816;6.054;2024-02-14T01:44:28;10.20;76.20
41628;DHT22;27321;50.816;6.054;2024-02-14T01:47:29;10.20;76.20
41628;DHT22;27321;50.816;6.054;2024-02-14T01:50:33;10.30;76.00
41628;DHT22;27321;50.816;6.054;2024-02-14T01:53:36;10.30;76.20
41628;DHT22;27321;50.816;6.054;2024-02-14T01:56:39;10.30;76.20
41628;DHT22;27321;50.816;6.054;2024-02-14T01:59:40;10.30;76.30
41628;DHT22;27321;50.816;6.054;2024-02-14T02:02:42;10.30;76.50
41628;DHT22;27321;50.816;6.054;2024-02-14T02:05:48;10.30;76.60
41628;DHT22;27321;50.816;6.054;2024-02-14T02:08:49;10.30;76.70
41628;DHT22;27321;50.816;6.054;2024-02-14T02:11:51;10.30;76.50
41628;DHT22;27321;50.816;6.054;2024-02-14T02:15:14;10.30;76.80
41628;DHT22;27321;50.816;6.054;2024-02-14T02:18:35;10.30;76.60
41628;DHT22;27321;50.816;6.054;2024-02-14T02:21:57;10.30;76.60
41628;DHT22;27321;50.816;6.054;2024-02-14T02:24:59;10.30;76.70
41628;DHT22;27321;50.816;6.054;2024-02-14T02:28:00;10.30;76.70
41628;DHT22;27321;50.816;6.054;2024-02-14T02:31:06;10.30;76.90
41628;DHT22;27321;50.816;6.054;2024-02-14T02:34:08;10.30;76.70
41628;DHT22;27321;50.816;6.054;2024-02-14T02:37:11;10.30;76.90
41628;DHT22;27321;50.816;6.054;2024-02-14T02:40:41;10.30;76.90
41628;DHT22;27321;50.816;6.054;2024-02-14T02:44:06;10.30;77.10
41628;DHT22;27321;50.816;6.054;2024-02-14T02:47:39;10.30;77.10
41628;DHT22;27321;50.816;6.054;2024-02-14T02:51:00;10.30;77.20
41628;DHT22;27321;50.816;6.054;2024-02-14T02:54:21;10.30;77.20
41628;DHT22;27321;50.816;6.054;2024-02-14T02:57:44;10.30;77.30
41628;DHT22;27321;50.816;6.054;2024-02-14T03:00:45;10.30;77.60
41628;DHT22;27321;50.816;6.054;2024-02-14T03:03:55;10.30;77.50
41628;DHT22;27321;50.816;6.054;2024-02-14T03:07:16;10.20;78.00
41628;DHT22;27321;50.816;6.054;2024-02-14T03:10:36;10.20;78.60
41628;DHT22;27321;50.816;6.054;2024-02-14T03:13:58;10.20;78.90
41628;DHT22;27321;50.816;6.054;2024-02-14T03:17:20;10.20;78.90
41628;DHT22;27321;50.816;6.054;2024-02-14T03:20:21;10.10;79.10
41628;DHT22;27321;50.816;6.054;2024-02-14T03:23:22;10.10;79.20
41628;DHT22;27321;50.816;6.054;2024-02-14T03:26:23;10.10;79.20
41628;DHT22;27321;50.816;6.054;2024-02-14T03:29:24;10.20;79.20
41628;DHT22;27321;50.816;6.054;2024-02-14T03:32:27;10.10;79.20
41628;DHT22;27321;50.816;6.054;2024-02-14T03:35:28;10.10;79.10
41628;DHT22;27321;50.816;6.054;2024-02-14T03:38:29;10.00;79.30
41628;DHT22;27321;50.816;6.054;2024-02-14T03:41:32;10.10;79.10
41628;DHT22;27321;50.816;6.054;2024-02-14T03:44:33;10.00;79.30
41628;DHT22;27321;50.816;6.054;2024-02-14T03:47:35;10.10;79.10
41628;DHT22;27321;50.816;6.054;2024-02-14T03:50:40;10.10;79.00
41628;DHT22;27321;50.816;6.054;2024-02-14T03:53:41;10.10;79.10
41628;DHT22;27321;50.816;6.054;2024-02-14T03:56:41;10.10;79.20
41628;DHT22;27321;50.816;6.054;2024-02-14T03:59:42;10.10;79.00
41628;DHT22;27321;50.816;6.054;2024-02-14T04:02:46;10.10;79.00
41628;DHT22;27321;50.816;6.054;2024-02-14T04:05:49;10.10;79.20
41628;DHT22;27321;50.816;6.054;2024-02-14T04:08:50;10.10;79.30
41628;DHT22;27321;50.816;6.054;2024-02-14T04:11:51;10.10;79.10
41628;DHT22;27321;50.816;6.054;2024-02-14T04:14:52;10.10;79.10
41628;DHT22;27321;50.816;6.054;2024-02-14T04:17:52;10.20;78.90
41628;DHT22;27321;50.816;6.054;2024-02-14T04:20:53;10.20;79.00
41628;DHT22;27321;50.816;6.054;2024-02-14T04:23:54;10.20;78.90
41628;DHT22;27321;50.816;6.054;2024-02-14T04:26:57;10.30;78.80
41628;DHT22;27321;50.816;6.054;2024-02-14T04:29:58;10.20;79.10
41628;DHT22;27321;50.816;6.054;2024-02-14T04:32:58;10.20;79.00
41628;DHT22;27321;50.816;6.054;2024-02-14T04:35:59;10.20;79.40
41628;DHT22;27321;50.816;6.054;2024-02-14T04:39:03;10.20;79.80
41628;DHT22;27321;50.816;6.054;2024-02-14T04:42:04;10.20;79.90
41628;DHT22;27321;50.816;6.054;2024-02-14T04:45:06;10.20;80.00
41628;DHT22;27321;50.816;6.054;2024-02-14T04:48:10;10.10;80.20
41628;DHT22;27321;50.816;6.054;2024-02-14T04:51:11;10.10;80.20
41628;DHT22;27321;50.816;6.054;2024-02-14T04:54:12;10.10;80.30
41628;DHT22;27321;50.816;6.054;2024-02-14T04:57:14;10.10;80.20
41628;DHT22;27321;50.816;6.054;2024-02-14T05:00:16;10.10;80.40
41628;DHT22;27321;50.816;6.054;2024-02-14T05:03:17;10.10;80.50
41628;DHT22;27321;50.816;6.054;2024-02-14T05:06:19;10.10;80.70
41628;DHT22;27321;50.816;6.054;2024-02-14T05:09:20;10.10;80.80
41628;DHT22;27321;50.816;6.054;2024-02-14T05:12:20;10.00;81.00
41628;DHT22;27321;50.816;6.054;2024-02-14T05:15:21;10.00;81.00
41628;DHT22;27321;50.816;6.054;2024-02-14T05:18:22;10.00;81.20
41628;DHT22;27321;50.816;6.054;2024-02-14T05:21:23;10.00;80.80
41628;DHT22;27321;50.816;6.054;2024-02-14T05:24:24;10.00;80.70
41628;DHT22;27321;50.816;6.054;2024-02-14T05:27:30;10.10;80.90
41628;DHT22;27321;50.816;6.054;2024-02-14T05:30:31;10.10;80.90
41628;DHT22;27321;50.816;6.054;2024-02-14T05:33:47;10.00;80.80
41628;DHT22;27321;50.816;6.054;2024-02-14T05:36:48;10.10;80.70
41628;DHT22;27321;50.816;6.054;2024-02-14T05:39:49;10.10;80.90
41628;DHT22;27321;50.816;6.054;2024-02-14T05:42:50;10.10;80.80
41628;DHT22;27321;50.816;6.054;2024-02-14T05:45:51;10.00;80.80
41628;DHT22;27321;50.816;6.054;2024-02-14T05:48:52;10.10;80.90
41628;DHT22;27321;50.816;6.054;2024-02-14T05:51:53;10.10;80.80
41628;DHT22;27321;50.816;6.054;2024-02-14T05:54:54;10.10;80.70
41628;DHT22;27321;50.816;6.054;2024-02-14T05:57:55;10.20;80.60
41628;DHT22;27321;50.816;6.054;2024-02-14T06:00:58;10.20;80.60
41628;DHT22;27321;50.816;6.054;2024-02-14T06:03:59;10.20;80.60
41628;DHT22;27321;50.816;6.054;2024-02-14T06:07:00;10.20;80.60
41628;DHT22;27321;50.816;6.054;2024-02-14T06:10:03;10.20;80.40
41628;DHT22;27321;50.816;6.054;2024-02-14T06:13:07;10.20;80.40
41628;DHT22;27321;50.816;6.054;2024-02-14T06:16:08;10.20;80.60
41628;DHT22;27321;50.816;6.054;2024-02-14T06:19:12;10.30;80.50
41628;DHT22;27321;50.816;6.054;2024-02-14T06:22:13;10.30;80.50
41628;DHT22;27321;50.816;6.054;2024-02-14T06:25:14;10.30;80.30
41628;DHT22;27321;50.816;6.054;2024-02-14T06:28:28;10.20;80.40
41628;DHT22;27321;50.816;6.054;2024-02-14T06:31:28;10.20;80.20
41628;DHT22;27321;50.816;6.054;2024-02-14T06:34:29;10.20;80.50
41628;DHT22;27321;50.816;6.054;2024-02-14T06:37:30;10.30;80.20
41628;DHT22;27321;50.816;6.054;2024-02-14T06:40:32;10.30;80.20
41628;DHT22;27321;50.816;6.054;2024-02-14T06:43:33;10.30;80.30
41628;DHT22;27321;50.816;6.054;2024-02-14T06:46:34;10.30;80.20
41628;DHT22;27321;50.816;6.054;2024-02-14T06:49:38;10.30;80.10
41628;DHT22;27321;50.816;6.054;2024-02-14T06:52:39;10.30;80.20
41628;DHT22;27321;50.816;6.054;2024-02-14T06:55:40;10.30;80.00
41628;DHT22;27321;50.816;6.054;2024-02-14T06:58:41;10.30;80.20
41628;DHT22;27321;50.816;6.054;2024-02-14T07:01:42;10.40;80.30
41628;DHT22;27321;50.816;6.054;2024-02-14T07:04:42;10.40;80.30
41628;DHT22;27321;50.816;6.054;2024-02-14T07:07:43;10.50;80.40
41628;DHT22;27321;50.816;6.054;2024-02-14T07:10:44;10.40;80.50
41628;DHT22;27321;50.816;6.054;2024-02-14T07:13:45;10.50;80.60
41628;DHT22;27321;50.816;6.054;2024-02-14T07:16:46;10.50;80.60
41628;DHT22;27321;50.816;6.054;2024-02-14T07:19:47;10.50;80.70
41628;DHT22;27321;50.816;6.054;2024-02-14T07:22:50;10.50;80.70
41628;DHT22;27321;50.816;6.054;2024-02-14T07:25:53;10.60;80.60
41628;DHT22;27321;50.816;6.054;2024-02-14T07:28:54;10.60;80.40
41628;DHT22;27321;50.816;6.054;2024-02-14T07:31:55;10.60;80.30
41628;DHT22;27321;50.816;6.054;2024-02-14T07:34:59;10.60;80.40
41628;DHT22;27321;50.816;6.054;2024-02-14T07:38:00;10.60;80.30
41628;DHT22;27321;50.816;6.054;2024-02-14T07:41:03;10.70;80.00
41628;DHT22;27321;50.816;6.054;2024-02-14T07:44:09;10.70;80.10
41628;DHT22;27321;50.816;6.054;2024-02-14T07:47:10;10.70;79.80
41628;DHT22;27321;50.816;6.054;2024-02-14T07:50:11;10.80;80.00
41628;DHT22;27321;50.816;6.054;2024-02-14T07:53:12;10.80;79.90
41628;DHT22;27321;50.816;6.054;2024-02-14T07:56:14;10.80;79.60
41628;DHT22;27321;50.816;6.054;2024-02-14T07:59:15;10.90;79.60
41628;DHT22;27321;50.816;6.054;2024-02-14T08:02:17;10.90;79.50
41628;DHT22;27321;50.816;6.054;2024-02-14T08:05:18;10.90;79.50
41628;DHT22;27321;50.816;6.054;2024-02-14T08:08:22;10.90;79.40
41628;DHT22;27321;50.816;6.054;2024-02-14T08:11:27;10.90;79.30
41628;DHT22;27321;50.816;6.054;2024-02-14T08:14:28;11.00;79.40
41628;DHT22;27321;50.816;6.054;2024-02-14T08:17:29;11.00;79.40
41628;DHT22;27321;50.816;6.054;2024-02-14T08:20:30;11.10;79.30
41628;DHT22;27321;50.816;6.054;2024-02-14T08:23:45;11.10;79.20
41628;DHT22;27321;50.816;6.054;2024-02-14T08:26:46;11.20;79.30
41628;DHT22;27321;50.816;6.054;2024-02-14T08:29:47;11.20;79.00
41628;DHT22;27321;50.816;6.054;2024-02-14T08:32:48;11.30;79.00
41628;DHT22;27321;50.816;6.054;2024-02-14T08:35:49;11.30;78.70
41628;DHT22;27321;50.816;6.054;2024-02-14T08:38:50;11.30;78.70
41628;DHT22;27321;50.816;6.054;2024-02-14T08:41:51;11.40;78.50
41628;DHT22;27321;50.816;6.054;2024-02-14T08:44:51;11.50;78.40
41628;DHT22;27321;50.816;6.054;2024-02-14T08:47:53;11.60;78.30
41628;DHT22;27321;50.816;6.054;2024-02-14T08:50:54;11.60;78.10
41628;DHT22;27321;50.816;6.054;2024-02-14T08:53:54;11.60;78.10
41628;DHT22;27321;50.816;6.054;2024-02-14T08:56:57;11.70;78.00
41628;DHT22;27321;50.816;6.054;2024-02-14T08:59:59;11.80;78.00
41628;DHT22;27321;50.816;6.054;2024-02-14T09:03:04;11.80;77.70
41628;DHT22;27321;50.816;6.054;2024-02-14T09:06:05;11.90;77.40
41628;DHT22;27321;50.816;6.054;2024-02-14T09:09:07;11.80;77.20
41628;DHT22;27321;50.816;6.054;2024-02-14T09:12:10;11.80;77.30
41628;DHT22;27321;50.816;6.054;2024-02-14T09:15:11;11.90;77.10
41628;DHT22;27321;50.816;6.054;2024-02-14T09:18:12;11.90;77.20
41628;DHT22;27321;50.816;6.054;2024-02-14T09:21:13;11.90;77.30
41628;DHT22;27321;50.816;6.054;2024-02-14T09:24:16;11.90;77.30
41628;DHT22;27321;50.816;6.054;2024-02-14T09:27:17;11.90;77.20
41628;DHT22;27321;50.816;6.054;2024-02-14T09:30:19;12.00;76.90
41628;DHT22;27321;50.816;6.054;2024-02-14T09:33:20;12.00;76.90
41628;DHT22;27321;50.816;6.054;2024-02-14T09:36:21;12.00;77.00
41628;DHT22;27321;50.816;6.054;2024-02-14T09:39:22;12.00;76.90
41628;DHT22;27321;50.816;6.054;2024-02-14T09:42:29;12.00;76.80
41628;DHT22;27321;50.816;6.054;2024-02-14T09:45:37;12.00;76.90
41628;DHT22;27321;50.816;6.054;2024-02-14T09:48:40;12.10;77.00
41628;DHT22;27321;50.816;6.054;2024-02-14T09:51:45;12.10;76.90
41628;DHT22;27321;50.816;6.054;2024-02-14T09:54:47;12.10;77.00
41628;DHT22;27321;50.816;6.054;2024-02-14T09:57:49;12.10;77.00
41628;DHT22;27321;50.816;6.054;2024-02-14T10:00:50;12.20;76.90
41628;DHT22;27321;50.816;6.054;2024-02-14T10:03:52;12.20;77.20
41628;DHT22;27321;50.816;6.054;2024-02-14T10:06:53;12.20;77.60
41628;DHT22;27321;50.816;6.054;2024-02-14T10:09:54;12.20;77.60
41628;DHT22;27321;50.816;6.054;2024-02-14T10:12:55;12.20;77.60
41628;DHT22;27321;50.816;6.054;2024-02-14T10:15:57;12.20;77.70
41628;DHT22;27321;50.816;6.054;2024-02-14T10:19:01;12.20;77.80
41628;DHT22;27321;50.816;6.054;2024-02-14T10:22:05;12.20;77.90
41628;DHT22;27321;50.816;6.054;2024-02-14T10:25:08;12.30;77.90
41628;DHT22;27321;50.816;6.054;2024-02-14T10:28:09;12.30;77.80
41628;DHT22;27321;50.816;6.054;2024-02-14T10:31:11;12.30;77.90
41628;DHT22;27321;50.816;6.054;2024-02-14T10:34:14;12.40;77.80
41628;DHT22;27321;50.816;6.054;2024-02-14T10:37:18;12.50;77.80
41628;DHT22;27321;50.816;6.054;2024-02-14T10:40:21;12.50;77.50
41628;DHT22;27321;50.816;6.054;2024-02-14T10:43:22;12.60;77.60
41628;DHT22;27321;50.816;6.054;2024-02-14T10:46:25;12.70;77.30
41628;DHT22;27321;50.816;6.054;2024-02-14T10:49:31;12.70;77.30
41628;DHT22;27321;50.816;6.054;2024-02-14T10:52:35;12.70;77.30
41628;DHT22;27321;50.816;6.054;2024-02-14T10:55:39;12.80;77.40
41628;DHT22;27321;50.816;6.054;2024-02-14T10:58:45;12.70;77.30
41628;DHT22;27321;50.816;6.054;2024-02-14T11:01:47;12.70;77.10
41628;DHT22;27321;50.816;6.054;2024-02-14T11:04:51;12.80;77.30
41628;DHT22;27321;50.816;6.054;2024-02-14T11:07:54;12.80;77.10
41628;DHT22;27321;50.816;6.054;2024-02-14T11:10:56;12.80;77.00
41628;DHT22;27321;50.816;6.054;2024-02-14T11:14:02;12.80;77.20
41628;DHT22;27321;50.816;6.054;2024-02-14T11:17:09;12.80;77.30
41628;DHT22;27321;50.816;6.054;2024-02-14T11:20:14;12.90;77.10
41628;DHT22;27321;50.816;6.054;2024-02-14T11:23:22;12.90;76.80
41628;DHT22;27321;50.816;6.054;2024-02-14T11:26:23;13.00;77.00
41628;DHT22;27321;50.816;6.054;2024-02-14T11:29:31;13.00;76.90
41628;DHT22;27321;50.816;6.054;2024-02-14T11:32:32;13.00;76.70
41628;DHT22;27321;50.816;6.054;2024-02-14T11:35:33;13.00;76.60
41628;DHT22;27321;50.816;6.054;2024-02-14T11:38:34;13.10;76.90
41628;DHT22;27321;50.816;6.054;2024-02-14T11:41:35;13.10;76.90
41628;DHT22;27321;50.816;6.054;2024-02-14T11:44:39;13.10;76.70
41628;DHT22;27321;50.816;6.054;2024-02-14T11:47:43;13.10;77.00
41628;DHT22;27321;50.816;6.054;2024-02-14T11:50:45;13.10;77.40
41628;DHT22;27321;50.816;6.054;2024-02-14T11:53:46;13.10;77.40
41628;DHT22;27321;50.816;6.054;2024-02-14T11:56:47;13.10;77.40
41628;DHT22;27321;50.816;6.054;2024-02-14T11:59:49;13.10;77.60
41628;DHT22;27321;50.816;6.054;2024-02-14T12:02:52;13.10;77.90
41628;DHT22;27321;50.816;6.054;2024-02-14T12:05:54;13.10;78.10
41628;DHT22;27321;50.816;6.054;2024-02-14T12:08:55;13.10;78.00
41628;DHT22;27321;50.816;6.054;2024-02-14T12:11:57;13.20;77.80
41628;DHT22;27321;50.816;6.054;2024-02-14T12:14:58;13.20;78.00
41628;DHT22;27321;50.816;6.054;2024-02-14T12:18:03;13.10;78.10
41628;DHT22;27321;50.816;6.054;2024-02-14T12:21:08;13.10;78.10
41628;DHT22;27321;50.816;6.054;2024-02-14T12:24:10;13.10;78.30
41628;DHT22;27321;50.816;6.054;2024-02-14T12:27:11;13.00;78.60
41628;DHT22;27321;50.816;6.054;2024-02-14T12:30:13;13.00;79.00
41628;DHT22;27321;50.816;6.054;2024-02-14T12:33:16;13.00;79.30
41628;DHT22;27321;50.816;6.054;2024-02-14T12:36:17;12.90;79.20
41628;DHT22;27321;50.816;6.054;2024-02-14T12:39:18;13.00;79.70
41628;DHT22;27321;50.816;6.054;2024-02-14T12:42:21;13.00;79.80
41628;DHT22;27321;50.816;6.054;2024-02-14T12:45:25;13.00;79.50
41628;DHT22;27321;50.816;6.054;2024-02-14T12:48:26;13.00;79.60
41628;DHT22;27321;50.816;6.054;2024-02-14T12:51:28;12.90;79.70
41628;DHT22;27321;50.816;6.054;2024-02-14T12:54:29;12.90;80.10
41628;DHT22;27321;50.816;6.054;2024-02-14T12:57:30;12.90;80.60
41628;DHT22;27321;50.816;6.054;2024-02-14T13:00:31;12.80;80.90
41628;DHT22;27321;50.816;6.054;2024-02-14T13:03:33;12.90;81.10
41628;DHT22;27321;50.816;6.054;2024-02-14T13:06:34;12.90;81.20
41628;DHT22;27321;50.816;6.054;2024-02-14T13:09:35;12.90;81.30
41628;DHT22;27321;50.816;6.054;2024-02-14T13:12:37;12.90;81.10
41628;DHT22;27321;50.816;6.054;2024-02-14T13:15:39;13.00;81.10
41628;DHT22;27321;50.816;6.054;2024-02-14T13:18:41;12.90;81.00
41628;DHT22;27321;50.816;6.054;2024-02-14T13:21:41;13.00;81.30
41628;DHT22;27321;50.816;6.054;2024-02-14T13:24:45;13.00;81.30
41628;DHT22;27321;50.816;6.054;2024-02-14T13:27:47;13.00;81.00
41628;DHT22;27321;50.816;6.054;2024-02-14T13:30:48;13.00;81.10
41628;DHT22;27321;50.816;6.054;2024-02-14T13:33:49;13.00;81.50
41628;DHT22;27321;50.816;6.054;2024-02-14T13:36:50;13.00;81.40
41628;DHT22;27321;50.816;6.054;2024-02-14T13:39:51;13.00;81.60
41628;DHT22;27321;50.816;6.054;2024-02-14T13:42:52;13.10;81.60
41628;DHT22;27321;50.816;6.054;2024-02-14T13:45:53;13.10;81.60
41628;DHT22;27321;50.816;6.054;2024-02-14T13:48:54;13.10;81.30
41628;DHT22;27321;50.816;6.054;2024-02-14T13:51:56;13.10;81.10
41628;DHT22;27321;50.816;6.054;2024-02-14T13:54:58;13.00;80.90
41628;DHT22;27321;50.816;6.054;2024-02-14T13:57:59;13.00;81.10
41628;DHT22;27321;50.816;6.054;2024-02-14T14:01:02;13.00;81.10
41628;DHT22;27321;50.816;6.054;2024-02-14T14:04:03;12.90;81.50
41628;DHT22;27321;50.816;6.054;2024-02-14T14:07:07;12.90;81.50
41628;DHT22;27321;50.816;6.054;2024-02-14T14:10:09;12.90;81.60
41628;DHT22;27321;50.816;6.054;2024-02-14T14:13:10;13.00;81.50
41628;DHT22;27321;50.816;6.054;2024-02-14T14:16:11;13.00;81.70
41628;DHT22;27321;50.816;6.054;2024-02-14T14:19:12;13.00;81.70
41628;DHT22;27321;50.816;6.054;2024-02-14T14:22:14;13.00;81.80
41628;DHT22;27321;50.816;6.054;2024-02-14T14:25:16;13.00;81.80
41628;DHT22;27321;50.816;6.054;2024-02-14T14:28:18;13.00;81.80
41628;DHT22;27321;50.816;6.054;2024-02-14T14:31:25;13.10;81.90
41628;DHT22;27321;50.816;6.054;2024-02-14T14:34:25;13.10;81.90
41628;DHT22;27321;50.816;6.054;2024-02-14T14:37:27;13.10;81.70
41628;DHT22;27321;50.816;6.054;2024-02-14T14:40:29;13.10;81.80
41628;DHT22;27321;50.816;6.054;2024-02-14T14:43:30;13.10;81.80
41628;DHT22;27321;50.816;6.054;2024-02-14T14:46:31;13.10;81.90
41628;DHT22;27321;50.816;6.054;2024-02-14T14:49:33;13.00;82.10
41628;DHT22;27321;50.816;6.054;2024-02-14T14:52:35;13.00;82.10
41628;DHT22;27321;50.816;6.054;2024-02-14T14:55:56;13.00;82.30
41628;DHT22;27321;50.816;6.054;2024-02-14T14:58:58;13.00;82.30
41628;DHT22;27321;50.816;6.054;2024-02-14T15:02:02;13.00;82.30
41628;DHT22;27321;50.816;6.054;2024-02-14T15:05:04;13.00;82.20
41628;DHT22;27321;50.816;6.054;2024-02-14T15:08:07;13.00;82.40
41628;DHT22;27321;50.816;6.054;2024-02-14T15:11:08;13.00;82.40
41628;DHT22;27321;50.816;6.054;2024-02-14T15:14:09;13.00;82.30
41628;DHT22;27321;50.816;6.054;2024-02-14T15:17:10;13.00;82.20
41628;DHT22;27321;50.816;6.054;2024-02-14T15:20:12;13.00;82.40
41628;DHT22;27321;50.816;6.054;2024-02-14T15:23:13;13.00;82.30
41628;DHT22;27321;50.816;6.054;2024-02-14T15:26:14;13.00;82.40
41628;DHT22;27321;50.816;6.054;2024-02-14T15:29:18;13.00;82.10
41628;DHT22;27321;50.816;6.054;2024-02-14T15:32:37;13.00;82.10
41628;DHT22;27321;50.816;6.054;2024-02-14T15:35:57;13.00;82.00
41628;DHT22;27321;50.816;6.054;2024-02-14T15:39:00;13.00;82.00
41628;DHT22;27321;50.816;6.054;2024-02-14T15:42:03;13.00;82.10
41628;DHT22;27321;50.816;6.054;2024-02-14T15:45:04;13.00;82.00
41628;DHT22;27321;50.816;6.054;2024-02-14T15:48:06;13.00;82.00
41628;DHT22;27321;50.816;6.054;2024-02-14T15:51:08;13.00;82.10
41628;DHT22;27321;50.816;6.054;2024-02-14T15:54:09;12.90;82.00
41628;DHT22;27321;50.816;6.054;2024-02-14T15:57:13;12.90;82.20
41628;DHT22;27321;50.816;6.054;2024-02-14T16:00:14;13.00;82.30
41628;DHT22;27321;50.816;6.054;2024-02-14T16:03:15;13.00;82.30
41628;DHT22;27321;50.816;6.054;2024-02-14T16:06:16;13.00;82.30
41628;DHT22;27321;50.816;6.054;2024-02-14T16:09:17;13.00;82.50
41628;DHT22;27321;50.816;6.054;2024-02-14T16:12:18;13.00;82.30
41628;DHT22;27321;50.816;6.054;2024-02-14T16:15:20;13.00;82.20
41628;DHT22;27321;50.816;6.054;2024-02-14T16:18:21;12.90;82.50
41628;DHT22;27321;50.816;6.054;2024-02-14T16:21:25;13.00;82.30
41628;DHT22;27321;50.816;6.054;2024-02-14T16:24:25;12.90;82.40
41628;DHT22;27321;50.816;6.054;2024-02-14T16:27:27;12.90;82.30
41628;DHT22;27321;50.816;6.054;2024-02-14T16:30:28;12.90;82.50
41628;DHT22;27321;50.816;6.054;2024-02-14T16:33:28;12.90;82.60
41628;DHT22;27321;50.816;6.054;2024-02-14T16:36:29;12.90;82.40
41628;DHT22;27321;50.816;6.054;2024-02-14T16:39:30;12.90;82.70
41628;DHT22;27321;50.816;6.054;2024-02-14T16:42:31;12.90;82.60
41628;DHT22;27321;50.816;6.054;2024-02-14T16:45:32;12.90;82.70
41628;DHT22;27321;50.816;6.054;2024-02-14T16:48:33;12.90;82.40
41628;DHT22;27321;50.816;6.054;2024-02-14T16:51:34;12.90;82.40
41628;DHT22;27321;50.816;6.054;2024-02-14T16:54:35;12.90;82.30
41628;DHT22;27321;50.816;6.054;2024-02-14T16:57:36;12.90;82.30
41628;DHT22;27321;50.816;6.054;2024-02-14T17:00:37;12.90;82.30
41628;DHT22;27321;50.816;6.054;2024-02-14T17:03:38;12.90;82.40
41628;DHT22;27321;50.816;6.054;2024-02-14T17:06:40;12.90;82.20
41628;DHT22;27321;50.816;6.054;2024-02-14T17:09:41;12.90;82.30
41628;DHT22;27321;50.816;6.054;2024-02-14T17:12:42;12.90;82.50
41628;DHT22;27321;50.816;6.054;2024-02-14T17:15:44;12.90;82.50
41628;DHT22;27321;50.816;6.054;2024-02-14T17:18:46;12.90;82.20
41628;DHT22;27321;50.816;6.054;2024-02-14T17:21:47;12.90;82.20
41628;DHT22;27321;50.816;6.054;2024-02-14T17:24:48;12.90;82.20
41628;DHT22;27321;50.816;6.054;2024-02-14T17:27:49;12.90;82.40
41628;DHT22;27321;50.816;6.054;2024-02-14T17:30:51;12.90;82.40
41628;DHT22;27321;50.816;6.054;2024-02-14T17:33:52;12.90;82.40
41628;DHT22;27321;50.816;6.054;2024-02-14T17:36:55;13.00;82.40
41628;DHT22;27321;50.816;6.054;2024-02-14T17:39:56;13.00;82.60
41628;DHT22;27321;50.816;6.054;2024-02-14T17:42:57;13.00;82.50
41628;DHT22;27321;50.816;6.054;2024-02-14T17:45:58;13.00;82.50
41628;DHT22;27321;50.816;6.054;2024-02-14T17:48:59;13.00;82.50
41628;DHT22;27321;50.816;6.054;2024-02-14T17:52:03;13.00;82.60
41628;DHT22;27321;50.816;6.054;2024-02-14T17:55:05;12.90;82.80
41628;DHT22;27321;50.816;6.054;2024-02-14T17:58:06;12.90;82.90
41628;DHT22;27321;50.816;6.054;2024-02-14T18:01:07;12.90;83.10
41628;DHT22;27321;50.816;6.054;2024-02-14T18:04:10;13.00;82.90
41628;DHT22;27321;50.816;6.054;2024-02-14T18:07:11;12.90;83.10
41628;DHT22;27321;50.816;6.054;2024-02-14T18:10:14;13.00;83.10
41628;DHT22;27321;50.816;6.054;2024-02-14T18:13:16;12.90;83.30
41628;DHT22;27321;50.816;6.054;2024-02-14T18:16:20;12.90;83.40
41628;DHT22;27321;50.816;6.054;2024-02-14T18:19:21;12.90;83.20
41628;DHT22;27321;50.816;6.054;2024-02-14T18:22:22;12.90;83.50
41628;DHT22;27321;50.816;6.054;2024-02-14T18:25:23;12.90;83.30
41628;DHT22;27321;50.816;6.054;2024-02-14T18:28:24;12.80;83.50
41628;DHT22;27321;50.816;6.054;2024-02-14T18:31:26;12.90;83.40
41628;DHT22;27321;50.816;6.054;2024-02-14T18:34:28;12.90;83.40
41628;DHT22;27321;50.816;6.054;2024-02-14T18:37:31;12.90;83.30
41628;DHT22;27321;50.816;6.054;2024-02-14T18:40:32;12.80;83.40
41628;DHT22;27321;50.816;6.054;2024-02-14T18:43:34;12.90;83.20
41628;DHT22;27321;50.816;6.054;2024-02-14T18:46:34;12.80;83.20
41628;DHT22;27321;50.816;6.054;2024-02-14T18:49:35;12.80;83.20
41628;DHT22;27321;50.816;6.054;2024-02-14T18:52:36;12.90;83.20
41628;DHT22;27321;50.816;6.054;2024-02-14T18:55:39;12.90;83.20
41628;DHT22;27321;50.816;6.054;2024-02-14T18:58:40;12.90;82.80
41628;DHT22;27321;50.816;6.054;2024-02-14T19:01:41;12.90;83.10
41628;DHT22;27321;50.816;6.054;2024-02-14T19:04:42;12.90;82.90
41628;DHT22;27321;50.816;6.054;2024-02-14T19:07:43;12.80;83.00
41628;DHT22;27321;50.816;6.054;2024-02-14T19:10:44;12.80;83.20
41628;DHT22;27321;50.816;6.054;2024-02-14T19:13:47;12.80;83.20